Brevnov, Czech Republic

3:04 PM CEST on July 23, 2017 (GMT +0200)
Malvazinky, Prague | | Change Station

Elev 951 ft 50.07 °N, 14.38 °E | Updated 27 seconds ago

Overcast
Overcast
70.7 °F
Feels Like 74 °F
N
2.0
Wind Variable Wind from North
Gusts 6.0 mph

Today
High -- | Low -- °F
--% Chance of Precip.
Yesterday
High -- | Low -- °F
Precip. -- in
Pressure 30.01 in
Visibility 6.2 miles
Clouds Few 3000 ft
Mostly Cloudy 4000 ft
Heat Index 74 °F
Dew Point 60 °F
Humidity 70%
Rainfall 0.04 in
Snow Depth Not available.
5:19 AM 8:57 PM
New Moon, 0% visible
SPECI LKKB 231240Z 29012KT 200V320 9999 VCTS FEW030CB BKN040 21/15 Q1016 RMK BLU
Pressure 30.01 in
Visibility 6.2 miles
Clouds Few 3000 ft
Mostly Cloudy 4000 ft
Heat Index 74 °F
Dew Point 60 °F
Humidity 70%
Rainfall 0.04 in
Snow Depth Not available.
5:19 AM 8:57 PM
New Moon, 0% visible
SPECI LKKB 231240Z 29012KT 200V320 9999 VCTS FEW030CB BKN040 21/15 Q1016 RMK BLU

Get Severe Weather Alerts

Thanks for signing up!

Be on the lookout for a verification email in your inbox.

You'll start receiving the daily forecast at 6 AM.

×

10-Day Weather Forecast

×

Almanac

Astronomy

Jul. 23, 2017 Rise Set
Actual Time
Civil Twilight
Nautical Twilight
Astronomical Twilight
Moon
Length of Visible Light
Length of Day
Tomorrow will be .
, % of the Moon is Illuminated

Today's Extremes

Country Highs Country Lows

Community

WunderPhotos

Category 6

Welcome to Category 6. This is the collective home for Weather Underground's featured writeups by Dr. Jeff Masters (right), Bob Henson (left), Chris Burt, and other regular contributors.

Nearby

Air Quality

  Air Quality AQ Index Pollutant
Not available.

Snow Depth

Station Depth Elevation

Earthquake Activity

City Distance Mag. Time & Date
Minimum magnitude displayed is 2.5.

Coastal Water Temperatures

Place Temperature

Stations

Nearby Weather Stations

Station Location Temp. Windchill Dew Point Humidity Wind Precip. Elev Updated Type